Eureka, Arkansas
Current Conditions -  °F | °C
As of 10:57 AM on Friday 19 Dec 2014 (Local Time) from KROG Reporting Station
Light Rain Light Rain  
Wind Chill: 40°   Ceiling: 600
Heat Index: 40°   Visibility: 8mi
Dew Point: 38°   Wind: 0mph
Humidity: 93%   Direction: NA
Pressure: 30.25"   Gusts: NA
Location:  36.4036°N, 93.7443°W
Report Text: KROG 191657Z AUTO 00000KT 8SM -RA OVC006 04/03 A3025 RMK AO2 RAB29 SLP251 P0000 T00440033
Loading
Personal Weather Stations






























Interactive Weather Map New forecast layout! Learn more

10-Day Weather Forecast

Advertisements
Track Severe Weather on mobile